< < Back
Terminal Aerodrome Forecast


Current Version              Previous Versions:   1  2  3  4  5  6  7  8  9  

Terminal Aerodrome Forecast

670
FTUS42 KCHS 272331
TAFSAV
TAF
KSAV 272331Z 2800/2824 09005KT P6SM VCSH SCT025 BKN050
     FM280300 05003KT P6SM SCT040 SCT050 BKN080
     FM280700 04003KT P6SM VCSH SCT035 BKN060
     FM281400 08009KT P6SM FEW020 BKN050=



Latest METAR

184
SAUS80 KWBC 280200
MTRSAV
METAR KSAV 280153Z 07005KT 10SM BKN070 BKN090 26/23 A3001 RMK AO2 SLP161
T02560228 PNO $


USA.gov is the U.S. government's official web portal to all federal, state and local government web resources and services.